createdAt,value
2019-03-16T00:00:03.398Z,10.20
2019-03-16T00:02:32.556Z,10.10
2019-03-16T00:05:01.629Z,10.20
2019-03-16T00:07:33.264Z,10.10
2019-03-16T00:10:01.348Z,10.10
2019-03-16T00:12:30.332Z,10.10
2019-03-16T00:14:59.386Z,10.10
2019-03-16T00:17:28.437Z,10.10
2019-03-16T00:19:57.444Z,10.10
2019-03-16T00:22:26.443Z,10.10
2019-03-16T00:24:55.514Z,10.10
2019-03-16T00:27:24.516Z,10.10
2019-03-16T00:29:53.662Z,10.10
2019-03-16T00:32:22.785Z,10.10
2019-03-16T00:34:51.930Z,10.10
2019-03-16T00:37:20.986Z,10.10
2019-03-16T00:39:50.102Z,10.10
2019-03-16T00:42:19.137Z,10.10
2019-03-16T00:44:48.161Z,10.10
2019-03-16T00:47:17.168Z,10.10
2019-03-16T00:49:46.148Z,10.10
2019-03-16T00:52:15.277Z,10.10
2019-03-16T00:54:44.314Z,10.00
2019-03-16T00:57:13.307Z,10.10
2019-03-16T00:59:42.404Z,10.10
2019-03-16T01:02:11.360Z,10.00
2019-03-16T01:04:40.355Z,10.10
2019-03-16T01:07:09.370Z,10.00
2019-03-16T01:09:38.397Z,10.10
2019-03-16T01:12:07.423Z,10.00
2019-03-16T01:14:36.425Z,10.00
2019-03-16T01:17:05.505Z,10.00
2019-03-16T01:19:34.496Z,10.00
2019-03-16T01:22:03.555Z,10.00
2019-03-16T01:24:51.777Z,10.00
2019-03-16T01:27:20.791Z,10.00
2019-03-16T01:29:49.768Z,10.00
2019-03-16T01:32:18.783Z,10.00
2019-03-16T01:34:49.153Z,10.00
2019-03-16T01:37:18.290Z,10.00
2019-03-16T01:39:47.469Z,10.00
2019-03-16T01:42:16.521Z,10.00
2019-03-16T01:44:45.530Z,10.00
2019-03-16T01:47:14.545Z,10.00
2019-03-16T01:49:43.558Z,10.00
2019-03-16T01:52:12.602Z,10.00
2019-03-16T01:54:41.693Z,10.00
2019-03-16T01:57:10.841Z,10.00
2019-03-16T01:59:39.902Z,10.00
2019-03-16T02:02:08.850Z,10.00
2019-03-16T02:04:37.910Z,10.00
2019-03-16T02:07:07.034Z,9.90
2019-03-16T02:09:35.997Z,9.90
2019-03-16T02:12:24.250Z,9.90
2019-03-16T02:14:53.313Z,9.90
2019-03-16T02:17:22.396Z,9.90
2019-03-16T02:19:51.408Z,9.90
2019-03-16T02:22:20.416Z,9.90
2019-03-16T02:24:49.377Z,9.90
2019-03-16T02:27:18.410Z,9.90
2019-03-16T02:29:47.432Z,9.90
2019-03-16T02:32:16.494Z,9.90
2019-03-16T02:34:45.557Z,9.90
2019-03-16T02:37:14.750Z,9.90
2019-03-16T02:39:43.746Z,9.90
2019-03-16T02:42:12.790Z,9.90
2019-03-16T02:44:41.862Z,9.90
2019-03-16T02:47:10.961Z,9.90
2019-03-16T02:49:40.042Z,9.90
2019-03-16T02:52:09.085Z,9.90
2019-03-16T02:54:38.160Z,9.90
2019-03-16T02:57:07.189Z,9.90
2019-03-16T02:59:36.222Z,9.90
2019-03-16T03:02:05.343Z,9.90
2019-03-16T03:04:34.438Z,9.80
2019-03-16T03:07:03.482Z,9.80
2019-03-16T03:09:32.430Z,9.80
2019-03-16T03:12:01.580Z,9.80
2019-03-16T03:14:30.589Z,9.80
2019-03-16T03:16:59.561Z,9.80
2019-03-16T03:19:28.539Z,9.80
2019-03-16T03:21:57.622Z,9.80
2019-03-16T03:24:26.686Z,9.70
2019-03-16T03:26:55.837Z,9.70
2019-03-16T03:29:24.872Z,9.80
2019-03-16T03:31:53.898Z,9.70
2019-03-16T03:34:22.919Z,9.70
2019-03-16T03:36:51.993Z,9.70
2019-03-16T03:39:21.043Z,9.70
2019-03-16T03:41:50.107Z,9.70
2019-03-16T03:44:19.196Z,9.70
2019-03-16T03:46:48.417Z,9.70
2019-03-16T03:49:17.476Z,9.70
2019-03-16T03:51:46.538Z,9.70
2019-03-16T03:54:15.648Z,9.70
2019-03-16T03:56:44.711Z,9.70
2019-03-16T03:59:13.855Z,9.70
2019-03-16T04:01:42.838Z,9.70
2019-03-16T04:04:15.855Z,9.60
2019-03-16T04:06:42.584Z,9.60
2019-03-16T04:09:11.574Z,9.60
2019-03-16T04:11:40.548Z,9.60
2019-03-16T04:14:09.609Z,9.60
2019-03-16T04:16:38.668Z,9.60
2019-03-16T04:19:07.664Z,9.60
2019-03-16T04:21:36.794Z,9.60
2019-03-16T04:24:05.832Z,9.60
2019-03-16T04:26:34.835Z,9.60
2019-03-16T04:29:03.854Z,9.50
2019-03-16T04:31:32.910Z,9.50
2019-03-16T04:34:01.976Z,9.50
2019-03-16T04:36:31.054Z,9.50
2019-03-16T04:39:00.089Z,9.50
2019-03-16T04:41:29.110Z,9.50
2019-03-16T04:43:58.167Z,9.50
2019-03-16T04:46:27.200Z,9.50
2019-03-16T04:48:56.220Z,9.50
2019-03-16T04:51:25.303Z,9.50
2019-03-16T04:53:54.303Z,9.50
2019-03-16T04:56:23.348Z,9.50
2019-03-16T04:58:52.418Z,9.50
2019-03-16T05:01:21.450Z,9.50
2019-03-16T05:03:50.744Z,9.50
2019-03-16T05:06:19.785Z,9.50
2019-03-16T05:08:48.826Z,9.50
2019-03-16T05:11:17.863Z,9.50
2019-03-16T05:13:46.858Z,9.50
2019-03-16T05:16:15.818Z,9.50
2019-03-16T05:18:44.882Z,9.50
2019-03-16T05:21:13.951Z,9.40
2019-03-16T05:23:43.006Z,9.50
2019-03-16T05:26:12.155Z,9.50
2019-03-16T05:28:41.208Z,9.50
2019-03-16T05:31:10.267Z,9.40
2019-03-16T05:33:39.290Z,9.40
2019-03-16T05:36:08.372Z,9.40
2019-03-16T05:38:37.423Z,9.40
2019-03-16T05:41:06.629Z,9.40
2019-03-16T05:43:35.681Z,9.40
2019-03-16T05:46:04.637Z,9.40
2019-03-16T05:48:33.642Z,9.40
2019-03-16T05:51:02.701Z,9.40
2019-03-16T05:53:31.778Z,9.40
2019-03-16T05:56:00.846Z,9.40
2019-03-16T05:58:29.937Z,9.40
2019-03-16T06:00:59.094Z,9.40
2019-03-16T06:03:28.164Z,9.30
2019-03-16T06:05:57.237Z,9.30
2019-03-16T06:08:26.271Z,9.30
2019-03-16T06:10:55.277Z,9.30
2019-03-16T06:13:24.323Z,9.30
2019-03-16T06:15:53.313Z,9.30
2019-03-16T06:18:22.314Z,9.30
2019-03-16T06:20:51.386Z,9.20
2019-03-16T06:23:20.453Z,9.20
2019-03-16T06:25:49.485Z,9.20
2019-03-16T06:28:18.530Z,9.20
2019-03-16T06:30:47.514Z,9.20
2019-03-16T06:33:16.558Z,9.20
2019-03-16T06:35:45.554Z,9.20
2019-03-16T06:38:14.557Z,9.20
2019-03-16T06:40:43.642Z,9.20
2019-03-16T06:43:14.807Z,9.20
2019-03-16T06:45:43.904Z,9.30
2019-03-16T06:48:13.041Z,9.30
2019-03-16T06:50:41.967Z,9.30
2019-03-16T06:53:10.998Z,9.30
2019-03-16T06:55:40.043Z,9.40
2019-03-16T06:58:09.077Z,9.40
2019-03-16T07:00:38.094Z,9.40
2019-03-16T07:03:07.110Z,9.40
2019-03-16T07:05:38.570Z,9.50
2019-03-16T07:08:06.903Z,9.50
2019-03-16T07:10:35.958Z,9.60
2019-03-16T07:13:04.928Z,9.60
2019-03-16T07:15:33.894Z,9.70
2019-03-16T07:18:02.902Z,9.70
2019-03-16T07:20:31.991Z,9.70
2019-03-16T07:23:00.976Z,9.70
2019-03-16T07:25:30.065Z,9.70
2019-03-16T07:27:59.118Z,9.80
2019-03-16T07:30:28.167Z,9.80
2019-03-16T07:32:57.209Z,9.80
2019-03-16T07:35:26.329Z,9.90
2019-03-16T07:37:55.348Z,9.90
2019-03-16T07:40:24.376Z,9.90
2019-03-16T07:42:53.521Z,9.90
2019-03-16T07:45:22.615Z,10.00
2019-03-16T07:47:51.699Z,10.00
2019-03-16T07:50:20.759Z,10.00
2019-03-16T07:52:49.813Z,10.10
2019-03-16T07:55:18.897Z,10.10
2019-03-16T07:57:47.917Z,10.10
2019-03-16T08:00:16.953Z,10.10
2019-03-16T08:02:45.944Z,10.20
2019-03-16T08:05:18.626Z,10.20
2019-03-16T08:07:45.858Z,10.20
2019-03-16T08:10:14.955Z,10.20
2019-03-16T08:12:44.002Z,10.30
2019-03-16T08:15:13.128Z,10.20
2019-03-16T08:17:44.404Z,10.30
2019-03-16T08:20:13.438Z,10.30
2019-03-16T08:22:42.415Z,10.30
2019-03-16T08:25:11.447Z,10.30
2019-03-16T08:27:53.004Z,10.30
2019-03-16T08:30:11.225Z,10.30
2019-03-16T08:32:40.249Z,10.30
2019-03-16T08:35:09.320Z,10.40
2019-03-16T08:37:38.403Z,10.40
2019-03-16T08:40:07.569Z,10.40
2019-03-16T08:42:36.650Z,10.40
2019-03-16T08:45:06.167Z,10.40
2019-03-16T08:47:35.178Z,10.40
2019-03-16T08:50:04.409Z,10.40
2019-03-16T08:52:33.489Z,10.50
2019-03-16T08:55:02.572Z,10.50
2019-03-16T08:57:31.644Z,10.50
2019-03-16T09:00:00.782Z,10.50
2019-03-16T09:02:29.777Z,10.50
2019-03-16T09:04:58.778Z,10.50
2019-03-16T09:07:27.826Z,10.60
2019-03-16T09:09:56.807Z,10.60
2019-03-16T09:12:25.886Z,10.60
2019-03-16T09:14:54.906Z,10.60
2019-03-16T09:17:23.935Z,10.60
2019-03-16T09:19:52.990Z,10.60
2019-03-16T09:22:22.059Z,10.70
2019-03-16T09:24:51.094Z,10.70
2019-03-16T09:27:30.648Z,10.70
2019-03-16T09:29:50.914Z,10.80
2019-03-16T09:32:19.975Z,10.80
2019-03-16T09:34:49.022Z,10.80
2019-03-16T09:37:18.049Z,10.80
2019-03-16T09:39:47.126Z,10.80
2019-03-16T09:42:16.086Z,10.80
2019-03-16T09:44:45.094Z,10.80
2019-03-16T09:47:14.165Z,10.90
2019-03-16T09:49:43.246Z,10.90
2019-03-16T09:52:12.434Z,10.90
2019-03-16T09:54:41.428Z,10.90
2019-03-16T09:57:10.470Z,10.90
2019-03-16T09:59:39.535Z,11.00
2019-03-16T10:02:08.611Z,11.00
2019-03-16T10:04:37.671Z,11.00
2019-03-16T10:07:06.723Z,11.00
2019-03-16T10:09:35.769Z,11.10
2019-03-16T10:12:04.807Z,11.10
2019-03-16T10:14:33.882Z,11.20
2019-03-16T10:17:02.894Z,11.20
2019-03-16T10:19:31.896Z,11.20
2019-03-16T10:22:00.921Z,11.20
2019-03-16T10:24:29.909Z,11.30
2019-03-16T10:26:58.979Z,11.20
2019-03-16T10:29:28.042Z,11.20
2019-03-16T10:31:57.093Z,11.20
2019-03-16T10:34:26.094Z,11.20
2019-03-16T10:36:55.146Z,11.20
2019-03-16T10:39:24.194Z,11.20
2019-03-16T10:41:53.319Z,11.30
2019-03-16T10:44:22.481Z,11.30
2019-03-16T10:46:51.644Z,11.30
2019-03-16T10:49:20.634Z,11.30
2019-03-16T10:51:49.653Z,11.30
2019-03-16T10:54:18.663Z,11.30
2019-03-16T10:56:47.700Z,11.30
2019-03-16T10:59:16.675Z,11.40
2019-03-16T11:01:45.764Z,11.40
2019-03-16T11:04:14.829Z,11.40
2019-03-16T11:06:43.892Z,11.40
2019-03-16T11:09:12.950Z,11.40
2019-03-16T11:11:41.919Z,11.40
2019-03-16T11:14:10.873Z,11.40
2019-03-16T11:16:39.892Z,11.50
2019-03-16T11:19:09.061Z,11.50
2019-03-16T11:21:38.127Z,11.60
2019-03-16T11:24:07.214Z,11.60
2019-03-16T11:26:36.274Z,11.70
2019-03-16T11:29:09.316Z,11.70
2019-03-16T11:31:36.149Z,11.70
2019-03-16T11:34:05.161Z,11.80
2019-03-16T11:36:34.150Z,11.80
2019-03-16T11:39:03.338Z,11.80
2019-03-16T11:41:32.395Z,11.90
2019-03-16T11:44:13.296Z,12.00
2019-03-16T11:46:42.381Z,12.10
2019-03-16T11:49:11.382Z,12.20
2019-03-16T11:51:40.427Z,12.20
2019-03-16T11:54:09.441Z,12.30
2019-03-16T11:56:38.539Z,12.30
2019-03-16T11:59:07.569Z,12.30
2019-03-16T12:01:36.597Z,12.30
2019-03-16T12:04:05.736Z,12.30
2019-03-16T12:06:34.764Z,12.30
2019-03-16T12:09:04.234Z,12.30
2019-03-16T12:11:33.308Z,12.30
2019-03-16T12:14:02.356Z,12.40
2019-03-16T12:16:31.410Z,12.50
2019-03-16T12:19:00.390Z,12.50
2019-03-16T12:21:29.538Z,12.60
2019-03-16T12:23:58.557Z,12.60
2019-03-16T12:26:27.566Z,12.70
2019-03-16T12:28:56.583Z,12.70
2019-03-16T12:31:25.586Z,12.70
2019-03-16T12:33:56.503Z,12.80
2019-03-16T12:36:25.447Z,12.80
2019-03-16T12:38:56.949Z,12.90
2019-03-16T12:41:25.973Z,12.90
2019-03-16T12:43:54.938Z,13.00
2019-03-16T12:46:23.964Z,13.00
2019-03-16T12:48:53.033Z,13.00
2019-03-16T12:51:22.090Z,13.00
2019-03-16T12:53:51.113Z,13.00
2019-03-16T12:56:20.143Z,12.90
2019-03-16T12:58:49.095Z,12.90
2019-03-16T13:01:18.129Z,12.90
2019-03-16T13:03:50.126Z,12.90
2019-03-16T13:06:19.180Z,13.00
2019-03-16T13:08:48.373Z,13.00
2019-03-16T13:11:17.404Z,13.10
2019-03-16T13:13:46.397Z,13.10
2019-03-16T13:16:15.399Z,13.10
2019-03-16T13:18:44.386Z,13.00
2019-03-16T13:21:13.462Z,13.00
2019-03-16T13:23:42.511Z,13.00
2019-03-16T13:26:11.628Z,13.00
2019-03-16T13:28:40.650Z,13.00
2019-03-16T13:31:09.700Z,13.00
2019-03-16T13:33:38.741Z,13.00
2019-03-16T13:36:07.777Z,13.10
2019-03-16T13:38:36.839Z,13.10
2019-03-16T13:41:05.914Z,13.10
2019-03-16T13:43:35.082Z,13.10
2019-03-16T13:46:23.305Z,13.10
2019-03-16T13:48:52.335Z,13.10
2019-03-16T13:51:21.516Z,13.10
2019-03-16T13:53:50.983Z,13.10
2019-03-16T13:56:19.981Z,13.00
2019-03-16T13:58:49.336Z,13.00
2019-03-16T14:01:18.390Z,13.00
2019-03-16T14:03:47.451Z,13.00
2019-03-16T14:06:16.830Z,13.00
2019-03-16T14:08:45.948Z,13.00
2019-03-16T14:11:15.022Z,13.00
2019-03-16T14:13:44.057Z,13.00
2019-03-16T14:16:13.311Z,13.10
2019-03-16T14:18:42.320Z,13.10
2019-03-16T14:21:11.331Z,13.10
2019-03-16T14:23:40.426Z,13.10
2019-03-16T14:26:09.443Z,13.10
2019-03-16T14:28:38.500Z,13.00
2019-03-16T14:31:07.513Z,13.10
2019-03-16T14:33:36.479Z,13.00
2019-03-16T14:36:05.830Z,13.00
2019-03-16T14:38:34.923Z,13.10
2019-03-16T14:41:03.992Z,13.00
2019-03-16T14:43:32.986Z,13.00
2019-03-16T14:46:01.982Z,13.10
2019-03-16T14:48:31.061Z,13.00
2019-03-16T14:51:00.080Z,13.00
2019-03-16T14:53:48.262Z,13.10
2019-03-16T14:56:17.265Z,13.00
2019-03-16T14:58:46.277Z,13.00
2019-03-16T15:01:15.327Z,13.00
2019-03-16T15:03:44.375Z,13.00
2019-03-16T15:06:13.483Z,12.90
2019-03-16T15:08:42.551Z,13.00
2019-03-16T15:11:11.693Z,12.90
2019-03-16T15:13:40.772Z,13.00
2019-03-16T15:16:09.790Z,13.00
2019-03-16T15:18:38.832Z,13.00
2019-03-16T15:21:07.970Z,12.90
2019-03-16T15:23:37.033Z,12.90
2019-03-16T15:26:06.170Z,12.90
2019-03-16T15:28:35.231Z,12.90
2019-03-16T15:31:04.258Z,12.90
2019-03-16T15:33:33.245Z,12.90
2019-03-16T15:36:02.262Z,12.90
2019-03-16T15:38:31.334Z,12.90
2019-03-16T15:41:00.345Z,12.90
2019-03-16T15:43:29.343Z,12.90
2019-03-16T15:45:58.362Z,12.90
2019-03-16T15:48:27.451Z,12.90
2019-03-16T15:50:56.631Z,12.90
2019-03-16T15:53:25.612Z,12.90
2019-03-16T15:55:54.702Z,12.90
2019-03-16T15:58:23.711Z,12.90
2019-03-16T16:01:02.996Z,12.90
2019-03-16T16:03:23.537Z,12.90
2019-03-16T16:05:52.578Z,12.90
2019-03-16T16:08:21.664Z,12.80
2019-03-16T16:11:00.343Z,12.80
2019-03-16T16:13:21.455Z,12.80
2019-03-16T16:15:50.601Z,12.70
2019-03-16T16:18:21.393Z,12.70
2019-03-16T16:20:50.359Z,12.70
2019-03-16T16:23:19.425Z,12.60
2019-03-16T16:25:48.403Z,12.70
2019-03-16T16:28:17.457Z,12.60
2019-03-16T16:30:46.599Z,12.60
2019-03-16T16:33:15.718Z,12.60
2019-03-16T16:35:44.780Z,12.60
2019-03-16T16:38:13.799Z,12.60
2019-03-16T16:40:42.826Z,12.60
2019-03-16T16:43:11.853Z,12.60
2019-03-16T16:45:40.856Z,12.50
2019-03-16T16:48:09.982Z,12.50
2019-03-16T16:50:39.045Z,12.50
2019-03-16T16:53:08.084Z,12.50
2019-03-16T16:55:37.446Z,12.50
2019-03-16T16:58:06.529Z,12.50
2019-03-16T17:00:35.768Z,12.40
2019-03-16T17:03:04.769Z,12.40
2019-03-16T17:05:33.828Z,12.50
2019-03-16T17:08:02.798Z,12.40
2019-03-16T17:10:31.851Z,12.40
2019-03-16T17:13:00.906Z,12.40
2019-03-16T17:15:29.973Z,12.40
2019-03-16T17:17:59.045Z,12.40
2019-03-16T17:20:28.108Z,12.40
2019-03-16T17:22:57.155Z,12.40
2019-03-16T17:25:26.184Z,12.30
2019-03-16T17:27:55.221Z,12.30
2019-03-16T17:30:24.243Z,12.30
2019-03-16T17:32:53.350Z,12.30
2019-03-16T17:35:22.383Z,12.20
2019-03-16T17:37:51.417Z,12.20
2019-03-16T17:40:20.457Z,12.20
2019-03-16T17:42:49.546Z,12.20
2019-03-16T17:45:18.551Z,12.20
2019-03-16T17:47:47.601Z,12.20
2019-03-16T17:50:16.847Z,12.20
2019-03-16T17:52:45.837Z,12.20
2019-03-16T17:55:14.872Z,12.10
2019-03-16T17:57:45.415Z,12.20
2019-03-16T18:00:14.753Z,12.10
2019-03-16T18:02:51.278Z,12.10
2019-03-16T18:05:14.605Z,12.10
2019-03-16T18:07:43.657Z,12.10
2019-03-16T18:10:12.757Z,12.10
2019-03-16T18:12:41.797Z,12.10
2019-03-16T18:15:11.915Z,12.10
2019-03-16T18:17:41.074Z,12.00
2019-03-16T18:20:10.481Z,12.00
2019-03-16T18:22:39.522Z,12.00
2019-03-16T18:25:09.371Z,12.00
2019-03-16T18:27:38.421Z,12.00
2019-03-16T18:30:09.358Z,12.00
2019-03-16T18:32:38.491Z,12.00
2019-03-16T18:35:07.547Z,11.90
2019-03-16T18:37:36.568Z,11.90
2019-03-16T18:40:06.152Z,11.90
2019-03-16T18:42:35.219Z,11.90
2019-03-16T18:45:04.409Z,11.90
2019-03-16T18:47:33.442Z,11.90
2019-03-16T18:50:02.473Z,11.90
2019-03-16T18:52:31.537Z,11.90
2019-03-16T18:55:00.529Z,11.90
2019-03-16T18:57:29.545Z,11.90
2019-03-16T18:59:58.581Z,11.90
2019-03-16T19:02:27.623Z,11.90
2019-03-16T19:04:56.657Z,11.90
2019-03-16T19:07:25.662Z,11.90
2019-03-16T19:09:54.598Z,11.90
2019-03-16T19:12:23.602Z,11.90
2019-03-16T19:14:52.661Z,11.90
2019-03-16T19:17:21.655Z,11.90
2019-03-16T19:19:50.651Z,11.90
2019-03-16T19:22:19.638Z,11.90
2019-03-16T19:24:48.597Z,11.90
2019-03-16T19:27:19.112Z,11.90
2019-03-16T19:29:48.348Z,11.90
2019-03-16T19:32:17.436Z,11.90
2019-03-16T19:34:46.437Z,11.90
2019-03-16T19:37:15.427Z,11.90
2019-03-16T19:40:03.622Z,11.90
2019-03-16T19:42:32.759Z,11.90
2019-03-16T19:45:01.923Z,11.90
2019-03-16T19:47:30.962Z,11.80
2019-03-16T19:50:00.002Z,11.80
2019-03-16T19:52:29.018Z,11.80
2019-03-16T19:54:58.071Z,11.80
2019-03-16T19:57:27.112Z,11.80
2019-03-16T19:59:56.068Z,11.80
2019-03-16T20:02:25.071Z,11.80
2019-03-16T20:04:54.071Z,11.80
2019-03-16T20:07:23.228Z,11.80
2019-03-16T20:09:53.467Z,11.80
2019-03-16T20:12:22.369Z,11.70
2019-03-16T20:14:51.490Z,11.70
2019-03-16T20:17:20.626Z,11.70
2019-03-16T20:19:49.756Z,11.70
2019-03-16T20:22:18.778Z,11.70
2019-03-16T20:24:48.056Z,11.70
2019-03-16T20:27:17.056Z,11.70
2019-03-16T20:29:46.286Z,11.70
2019-03-16T20:32:15.439Z,11.70
2019-03-16T20:34:44.563Z,11.70
2019-03-16T20:37:13.631Z,11.70
2019-03-16T20:39:42.650Z,11.70
2019-03-16T20:42:11.684Z,11.70
2019-03-16T20:44:40.713Z,11.70
2019-03-16T20:47:09.867Z,11.70
2019-03-16T20:49:38.995Z,11.60
2019-03-16T20:52:08.005Z,11.60
2019-03-16T20:54:37.077Z,11.60
2019-03-16T20:57:06.232Z,11.60
2019-03-16T20:59:35.316Z,11.60
2019-03-16T21:02:04.447Z,11.60
2019-03-16T21:04:33.538Z,11.60
2019-03-16T21:07:02.581Z,11.60
2019-03-16T21:09:31.774Z,11.60
2019-03-16T21:12:00.821Z,11.50
2019-03-16T21:14:29.955Z,11.60
2019-03-16T21:16:59.085Z,11.50
2019-03-16T21:19:28.242Z,11.50
2019-03-16T21:21:57.317Z,11.50
2019-03-16T21:24:26.450Z,11.50
2019-03-16T21:26:55.487Z,11.50
2019-03-16T21:29:26.352Z,11.50
2019-03-16T21:31:55.370Z,11.50
2019-03-16T21:34:24.382Z,11.50
2019-03-16T21:36:53.406Z,11.50
2019-03-16T21:39:22.368Z,11.50
2019-03-16T21:41:51.452Z,11.50
2019-03-16T21:44:20.441Z,11.50
2019-03-16T21:46:49.474Z,11.40
2019-03-16T21:49:18.526Z,11.40
2019-03-16T21:51:47.566Z,11.40
2019-03-16T21:54:16.598Z,11.40
2019-03-16T21:56:45.612Z,11.40
2019-03-16T21:59:14.671Z,11.40
2019-03-16T22:01:43.724Z,11.40
2019-03-16T22:04:12.904Z,11.40
2019-03-16T22:06:41.928Z,11.40
2019-03-16T22:09:10.974Z,11.50
2019-03-16T22:11:40.028Z,11.50
2019-03-16T22:14:09.117Z,11.50
2019-03-16T22:16:38.188Z,11.50
2019-03-16T22:19:07.300Z,11.50
2019-03-16T22:21:36.375Z,11.50
2019-03-16T22:24:05.395Z,11.50
2019-03-16T22:26:34.479Z,11.50
2019-03-16T22:29:22.718Z,11.50
2019-03-16T22:31:51.714Z,11.50
2019-03-16T22:34:20.728Z,11.50
2019-03-16T22:36:49.778Z,11.60
2019-03-16T22:39:18.846Z,11.50
2019-03-16T22:41:47.859Z,11.50
2019-03-16T22:44:16.889Z,11.50
2019-03-16T22:46:45.959Z,11.50
2019-03-16T22:49:14.998Z,11.50
2019-03-16T22:51:43.993Z,11.50
2019-03-16T22:54:13.141Z,11.60
2019-03-16T22:56:42.291Z,11.50
2019-03-16T22:59:11.351Z,11.60
2019-03-16T23:01:40.359Z,11.60
2019-03-16T23:04:09.346Z,11.60
2019-03-16T23:06:38.418Z,11.60
2019-03-16T23:09:08.138Z,11.60
2019-03-16T23:11:37.203Z,11.60
2019-03-16T23:14:06.270Z,11.60
2019-03-16T23:16:35.318Z,11.60
2019-03-16T23:19:04.375Z,11.60
2019-03-16T23:21:33.294Z,11.60
2019-03-16T23:24:02.281Z,11.60
2019-03-16T23:26:38.338Z,11.60
2019-03-16T23:29:02.003Z,11.60
2019-03-16T23:31:31.089Z,11.60
2019-03-16T23:34:00.098Z,11.60
2019-03-16T23:36:29.202Z,11.60
2019-03-16T23:38:58.222Z,11.60
2019-03-16T23:41:28.215Z,11.60
2019-03-16T23:43:57.355Z,11.60
2019-03-16T23:46:26.499Z,11.60
2019-03-16T23:48:55.521Z,11.60
2019-03-16T23:51:24.549Z,11.60
2019-03-16T23:53:53.628Z,11.60
2019-03-16T23:56:22.667Z,11.50
2019-03-16T23:58:51.747Z,11.50
